createdAt,value
2019-04-14T00:00:25.066Z,6.47
2019-04-14T00:03:00.076Z,5.17
2019-04-14T00:05:32.912Z,6.17
2019-04-14T00:08:02.441Z,5.87
2019-04-14T00:10:33.259Z,5.40
2019-04-14T00:13:03.073Z,5.77
2019-04-14T00:15:40.624Z,5.23
2019-04-14T00:18:05.444Z,5.17
2019-04-14T00:20:35.946Z,5.00
2019-04-14T00:23:06.568Z,5.03
2019-04-14T00:25:36.999Z,6.03
2019-04-14T00:28:07.362Z,5.00
2019-04-14T00:30:38.241Z,4.80
2019-04-14T00:33:10.675Z,5.17
2019-04-14T00:35:54.233Z,5.47
2019-04-14T00:38:26.014Z,4.90
2019-04-14T00:41:07.200Z,5.00
2019-04-14T00:43:39.597Z,5.03
2019-04-14T00:46:23.998Z,4.63
2019-04-14T00:48:54.058Z,4.77
2019-04-14T00:51:24.504Z,4.40
2019-04-14T00:53:55.666Z,5.10
2019-04-14T00:56:25.867Z,4.87
2019-04-14T00:58:56.175Z,4.53
2019-04-14T01:01:26.512Z,4.83
2019-04-14T01:03:56.970Z,5.20
2019-04-14T01:06:27.324Z,4.13
2019-04-14T01:08:57.591Z,4.30
2019-04-14T01:11:27.426Z,4.70
2019-04-14T01:13:57.336Z,4.43
2019-04-14T01:16:28.144Z,4.33
2019-04-14T01:18:58.175Z,4.63
2019-04-14T01:21:28.528Z,4.93
2019-04-14T01:23:58.909Z,4.90
2019-04-14T01:26:28.927Z,4.23
2019-04-14T01:28:59.356Z,4.90
2019-04-14T01:31:29.604Z,5.03
2019-04-14T01:33:59.781Z,5.13
2019-04-14T01:36:29.908Z,5.63
2019-04-14T01:39:00.342Z,5.30
2019-04-14T01:41:30.401Z,5.00
2019-04-14T01:44:00.398Z,4.87
2019-04-14T01:46:32.692Z,4.87
2019-04-14T01:49:02.868Z,4.60
2019-04-14T01:51:50.752Z,5.43
2019-04-14T01:54:38.751Z,5.10
2019-04-14T01:57:22.133Z,4.97
2019-04-14T01:59:52.512Z,4.80
2019-04-14T02:02:27.184Z,4.97
2019-04-14T02:04:57.574Z,5.53
2019-04-14T02:07:27.679Z,5.07
2019-04-14T02:09:57.654Z,4.90
2019-04-14T02:12:27.881Z,5.47
2019-04-14T02:14:58.282Z,4.43
2019-04-14T02:17:28.527Z,5.20
2019-04-14T02:19:58.961Z,5.17
2019-04-14T02:22:29.164Z,4.80
2019-04-14T02:24:59.283Z,4.53
2019-04-14T02:27:29.742Z,4.60
2019-04-14T02:30:00.350Z,4.47
2019-04-14T02:32:57.469Z,5.07
2019-04-14T02:35:28.520Z,4.43
2019-04-14T02:38:03.600Z,4.77
2019-04-14T02:40:40.980Z,5.00
2019-04-14T02:43:09.285Z,5.60
2019-04-14T02:48:20.424Z,4.47
2019-04-14T02:50:43.787Z,4.57
2019-04-14T02:53:15.190Z,4.57
2019-04-14T02:55:46.781Z,4.47
2019-04-14T02:58:20.370Z,4.73
2019-04-14T03:00:47.939Z,4.40
2019-04-14T03:03:27.838Z,4.80
2019-04-14T03:05:53.255Z,5.57
2019-04-14T03:18:47.075Z,5.27
2019-04-14T03:24:10.893Z,5.30
2019-04-14T03:26:47.417Z,5.40
2019-04-14T03:29:27.153Z,5.17
2019-04-14T03:32:15.016Z,4.63
2019-04-14T03:39:36.997Z,5.50
2019-04-14T03:42:01.276Z,5.73
2019-04-14T03:44:37.535Z,5.20
2019-04-14T03:47:08.709Z,4.90
2019-04-14T03:49:42.430Z,5.50
2019-04-14T03:54:32.842Z,4.90
2019-04-14T03:56:49.282Z,4.73
2019-04-14T03:59:19.722Z,5.00
2019-04-14T04:01:50.670Z,5.17
2019-04-14T04:04:20.697Z,4.97
2019-04-14T04:06:50.982Z,5.30
2019-04-14T04:09:23.575Z,5.27
2019-04-14T04:11:54.117Z,5.80
2019-04-14T04:14:24.628Z,5.03
2019-04-14T04:17:14.668Z,4.83
2019-04-14T04:20:05.328Z,5.23
2019-04-14T04:22:36.962Z,5.00
2019-04-14T04:25:09.434Z,4.67
2019-04-14T04:27:50.463Z,4.73
2019-04-14T04:30:31.828Z,6.03
2019-04-14T04:33:04.430Z,4.40
2019-04-14T04:35:41.920Z,4.60
2019-04-14T04:38:16.003Z,4.70
2019-04-14T04:40:46.193Z,4.90
2019-04-14T04:43:16.866Z,5.10
2019-04-14T04:45:47.387Z,5.10
2019-04-14T04:48:17.459Z,5.20
2019-04-14T04:50:49.999Z,5.13
2019-04-14T04:53:20.157Z,5.47
2019-04-14T04:55:50.422Z,5.23
2019-04-14T04:58:21.530Z,5.03
2019-04-14T05:00:54.167Z,5.43
2019-04-14T05:03:23.381Z,6.50
2019-04-14T05:06:28.662Z,5.87
2019-04-14T05:09:01.249Z,5.50
2019-04-14T05:11:52.588Z,6.60
2019-04-14T05:14:41.242Z,6.80
2019-04-14T05:17:12.568Z,5.77
2019-04-14T05:19:43.584Z,6.13
2019-04-14T05:22:16.111Z,5.77
2019-04-14T05:24:46.087Z,5.47
2019-04-14T05:27:16.717Z,6.00
2019-04-14T05:29:47.236Z,6.10
2019-04-14T05:32:17.459Z,6.10
2019-04-14T05:34:47.886Z,5.83
2019-04-14T05:37:18.237Z,6.10
2019-04-14T05:39:48.435Z,6.00
2019-04-14T05:42:22.045Z,5.60
2019-04-14T05:44:49.906Z,5.70
2019-04-14T05:47:19.805Z,6.50
2019-04-14T05:49:53.082Z,6.13
2019-04-14T05:52:21.244Z,6.13
2019-04-14T05:54:51.507Z,6.17
2019-04-14T05:57:21.988Z,6.53
2019-04-14T05:59:52.734Z,6.63
2019-04-14T06:02:22.631Z,6.17
2019-04-14T06:04:52.581Z,6.03
2019-04-14T06:07:22.361Z,5.93
2019-04-14T06:09:52.153Z,6.90
2019-04-14T06:12:21.927Z,6.93
2019-04-14T06:14:51.770Z,7.27
2019-04-14T06:17:21.510Z,7.53
2019-04-14T06:19:51.415Z,8.10
2019-04-14T06:22:21.325Z,8.33
2019-04-14T06:24:51.105Z,8.00
2019-04-14T06:27:21.061Z,7.83
2019-04-14T06:29:52.490Z,7.73
2019-04-14T06:32:24.022Z,7.37
2019-04-14T06:34:55.551Z,7.63
2019-04-14T06:37:36.407Z,8.27
2019-04-14T06:40:08.253Z,7.67
2019-04-14T06:42:38.091Z,7.47
2019-04-14T06:45:08.286Z,7.80
2019-04-14T06:47:38.134Z,8.77
2019-04-14T06:50:09.143Z,7.37
2019-04-14T06:52:39.061Z,8.37
2019-04-14T06:55:09.109Z,7.27
2019-04-14T06:57:38.979Z,8.17
2019-04-14T07:00:09.570Z,6.90
2019-04-14T07:02:39.572Z,7.77
2019-04-14T07:05:09.485Z,7.07
2019-04-14T07:07:39.349Z,6.83
2019-04-14T07:10:09.193Z,7.50
2019-04-14T07:12:39.037Z,9.20
2019-04-14T07:15:09.153Z,11.70
2019-04-14T07:17:38.995Z,8.17
2019-04-14T07:20:09.002Z,11.30
2019-04-14T07:22:38.843Z,8.47
2019-04-14T07:25:08.772Z,12.50
2019-04-14T07:27:38.676Z,6.73
2019-04-14T07:30:16.441Z,9.37
2019-04-14T07:32:47.979Z,7.23
2019-04-14T07:35:28.587Z,7.10
2019-04-14T07:38:01.158Z,7.93
2019-04-14T07:40:39.137Z,7.13
2019-04-14T07:43:27.073Z,6.97
2019-04-14T07:46:03.173Z,6.27
2019-04-14T07:48:39.187Z,7.10
2019-04-14T07:51:25.938Z,6.50
2019-04-14T07:53:57.322Z,6.93
2019-04-14T07:56:37.846Z,6.37
2019-04-14T07:59:21.285Z,5.90
2019-04-14T08:02:04.682Z,7.57
2019-04-14T08:04:36.088Z,6.27
2019-04-14T08:07:06.015Z,6.30
2019-04-14T08:09:35.934Z,5.97
2019-04-14T08:12:05.797Z,5.90
2019-04-14T08:14:35.829Z,6.27
2019-04-14T08:17:05.710Z,5.57
2019-04-14T08:19:37.261Z,6.10
2019-04-14T08:22:07.238Z,5.80
2019-04-14T08:24:37.203Z,5.43
2019-04-14T08:27:07.005Z,5.07
2019-04-14T08:29:36.940Z,5.50
2019-04-14T08:32:06.754Z,6.10
2019-04-14T08:34:36.781Z,5.70
2019-04-14T08:37:06.720Z,5.40
2019-04-14T08:39:36.503Z,5.30
2019-04-14T08:42:19.972Z,5.30
2019-04-14T08:47:56.658Z,6.80
2019-04-14T08:50:39.453Z,5.77
2019-04-14T08:53:13.345Z,5.73
2019-04-14T08:55:57.353Z,4.93
2019-04-14T08:58:29.066Z,5.67
2019-04-14T09:01:06.744Z,5.57
2019-04-14T09:03:49.743Z,6.23
2019-04-14T09:06:21.110Z,6.93
2019-04-14T09:09:09.218Z,5.40
2019-04-14T09:11:49.421Z,5.50
2019-04-14T09:14:19.161Z,5.70
2019-04-14T09:16:48.968Z,5.70
2019-04-14T09:19:18.712Z,6.23
2019-04-14T09:21:48.440Z,5.53
2019-04-14T09:24:18.269Z,5.57
2019-04-14T09:26:48.102Z,5.57
2019-04-14T09:29:17.931Z,6.07
2019-04-14T09:31:47.677Z,7.30
2019-04-14T09:34:17.452Z,5.90
2019-04-14T09:36:47.204Z,5.77
2019-04-14T09:39:17.132Z,6.13
2019-04-14T09:41:46.890Z,6.23
2019-04-14T09:44:16.644Z,6.07
2019-04-14T09:46:48.533Z,6.00
2019-04-14T09:49:18.295Z,6.20
2019-04-14T09:51:48.011Z,7.20
2019-04-14T09:54:17.683Z,6.90
2019-04-14T09:56:47.450Z,5.77
2019-04-14T09:59:17.240Z,6.50
2019-04-14T10:01:46.943Z,10.50
2019-04-14T10:04:16.800Z,6.97
2019-04-14T10:06:46.483Z,9.70
2019-04-14T10:09:16.264Z,8.10
2019-04-14T10:11:49.279Z,8.90
2019-04-14T10:14:17.582Z,6.97
2019-04-14T10:16:47.248Z,6.70
2019-04-14T10:19:17.087Z,7.03
2019-04-14T10:21:46.881Z,8.43
2019-04-14T10:24:16.722Z,7.53
2019-04-14T10:26:46.549Z,8.17
2019-04-14T10:29:16.346Z,6.60
2019-04-14T10:31:46.162Z,7.93
2019-04-14T10:34:16.004Z,7.00
2019-04-14T10:36:45.755Z,9.23
2019-04-14T10:39:15.668Z,7.97
2019-04-14T10:41:45.539Z,7.80
2019-04-14T10:44:15.295Z,7.87
2019-04-14T10:46:45.113Z,7.03
2019-04-14T10:49:14.952Z,8.77
2019-04-14T10:51:44.731Z,7.60
2019-04-14T10:54:14.540Z,7.43
2019-04-14T10:56:44.365Z,8.10
2019-04-14T10:59:14.355Z,8.13
2019-04-14T11:01:44.280Z,8.03
2019-04-14T11:04:14.025Z,8.33
2019-04-14T11:06:51.610Z,9.10
2019-04-14T11:09:21.320Z,9.00
2019-04-14T11:11:51.098Z,8.37
2019-04-14T11:14:20.811Z,8.67
2019-04-14T11:16:50.732Z,8.30
2019-04-14T11:19:20.582Z,8.67
2019-04-14T11:21:50.603Z,8.37
2019-04-14T11:24:20.477Z,8.17
2019-04-14T11:26:50.470Z,8.40
2019-04-14T11:29:20.277Z,10.67
2019-04-14T11:31:51.682Z,8.77
2019-04-14T11:34:23.128Z,8.53
2019-04-14T11:37:06.296Z,7.43
2019-04-14T11:39:36.039Z,7.80
2019-04-14T11:42:05.853Z,8.83
2019-04-14T11:44:35.626Z,8.17
2019-04-14T11:47:08.697Z,7.70
2019-04-14T11:49:38.549Z,8.10
2019-04-14T11:52:08.444Z,7.23
2019-04-14T11:54:38.220Z,7.30
2019-04-14T11:57:08.149Z,8.43
2019-04-14T11:59:39.575Z,8.30
2019-04-14T12:02:11.102Z,7.40
2019-04-14T12:04:42.520Z,7.57
2019-04-14T12:07:25.893Z,7.53
2019-04-14T12:10:00.039Z,7.03
2019-04-14T12:12:30.001Z,7.13
2019-04-14T12:14:59.905Z,7.20
2019-04-14T12:17:31.491Z,6.43
2019-04-14T12:20:01.408Z,6.73
2019-04-14T12:22:31.306Z,6.43
2019-04-14T12:25:01.224Z,6.20
2019-04-14T12:27:30.960Z,6.40
2019-04-14T12:30:01.052Z,6.50
2019-04-14T12:32:31.353Z,6.73
2019-04-14T12:35:01.123Z,6.47
2019-04-14T12:37:30.867Z,6.43
2019-04-14T12:40:00.564Z,6.53
2019-04-14T12:42:32.056Z,6.23
2019-04-14T12:45:03.584Z,6.00
2019-04-14T12:47:39.899Z,5.80
2019-04-14T12:50:17.636Z,6.03
2019-04-14T12:52:47.524Z,5.77
2019-04-14T12:55:17.273Z,5.80
2019-04-14T12:57:51.158Z,5.60
2019-04-14T13:00:22.775Z,5.40
2019-04-14T13:02:56.251Z,6.03
2019-04-14T13:05:26.122Z,5.50
2019-04-14T13:07:55.883Z,5.67
2019-04-14T13:10:25.891Z,5.37
2019-04-14T13:12:55.624Z,5.47
2019-04-14T13:15:25.563Z,5.47
2019-04-14T13:17:55.476Z,5.80
2019-04-14T13:20:25.317Z,5.07
2019-04-14T13:22:55.085Z,5.53
2019-04-14T13:25:24.896Z,5.10
2019-04-14T13:27:54.820Z,5.77
2019-04-14T13:30:29.347Z,5.00
2019-04-14T13:32:59.341Z,5.57
2019-04-14T13:35:29.412Z,4.97
2019-04-14T13:37:59.400Z,5.77
2019-04-14T13:40:29.354Z,5.40
2019-04-14T13:42:59.272Z,5.80
2019-04-14T13:45:29.195Z,4.60
2019-04-14T13:47:58.973Z,5.10
2019-04-14T13:50:28.752Z,4.40
2019-04-14T13:53:01.075Z,4.70
2019-04-14T13:55:30.215Z,5.30
2019-04-14T13:58:00.040Z,4.90
2019-04-14T14:00:30.026Z,4.67
2019-04-14T14:03:00.069Z,4.63
2019-04-14T14:05:29.850Z,5.03
2019-04-14T14:07:59.638Z,4.90
2019-04-14T14:10:30.621Z,5.00
2019-04-14T14:13:17.164Z,5.23
2019-04-14T14:15:48.722Z,4.70
2019-04-14T14:18:23.133Z,5.33
2019-04-14T14:20:57.443Z,4.67
2019-04-14T14:23:28.881Z,5.20
2019-04-14T14:26:03.144Z,5.27
2019-04-14T14:28:33.026Z,4.80
2019-04-14T14:31:02.880Z,4.73
2019-04-14T14:33:32.655Z,4.37
2019-04-14T14:36:02.428Z,4.57
2019-04-14T14:38:32.209Z,4.60
2019-04-14T14:41:03.642Z,4.50
2019-04-14T14:43:33.435Z,5.47
2019-04-14T14:46:20.800Z,5.20
2019-04-14T14:49:07.265Z,4.37
2019-04-14T14:51:47.914Z,4.83
2019-04-14T14:54:17.869Z,4.50
2019-04-14T14:56:47.796Z,4.70
2019-04-14T14:59:17.589Z,4.23
2019-04-14T15:01:47.472Z,4.57
2019-04-14T15:04:19.002Z,4.93
2019-04-14T15:06:48.908Z,4.17
2019-04-14T15:09:18.747Z,4.60
2019-04-14T15:11:48.511Z,3.93
2019-04-14T15:14:18.366Z,4.27
2019-04-14T15:16:48.263Z,4.80
2019-04-14T15:19:18.161Z,4.67
2019-04-14T15:21:48.073Z,4.57
2019-04-14T15:24:17.902Z,4.50
2019-04-14T15:26:47.804Z,4.17
2019-04-14T15:29:17.595Z,4.63
2019-04-14T15:31:47.396Z,4.50
2019-04-14T15:34:17.127Z,4.23
2019-04-14T15:36:47.098Z,4.17
2019-04-14T15:39:16.846Z,4.47
2019-04-14T15:41:46.708Z,4.00
2019-04-14T15:44:16.468Z,3.83
2019-04-14T15:46:46.212Z,3.23
2019-04-14T15:49:15.987Z,4.00
2019-04-14T15:51:45.739Z,4.23
2019-04-14T15:54:15.506Z,3.50
2019-04-14T15:56:49.686Z,4.47
2019-04-14T15:59:30.084Z,3.70
2019-04-14T16:02:13.549Z,3.77
2019-04-14T16:04:47.846Z,3.87
2019-04-14T16:07:27.970Z,3.57
2019-04-14T16:10:08.200Z,4.60
2019-04-14T16:12:48.500Z,3.87
2019-04-14T16:15:19.867Z,3.83
2019-04-14T16:17:54.195Z,3.43
2019-04-14T16:20:28.200Z,3.80
2019-04-14T16:22:58.007Z,4.33
2019-04-14T16:25:39.526Z,3.70
2019-04-14T16:28:10.968Z,3.93
2019-04-14T16:31:00.548Z,5.33
2019-04-14T16:33:31.903Z,4.30
2019-04-14T16:36:01.756Z,4.17
2019-04-14T16:38:31.419Z,3.83
2019-04-14T16:41:01.151Z,3.73
2019-04-14T16:43:30.813Z,4.10
2019-04-14T16:46:00.584Z,4.10
2019-04-14T16:48:31.384Z,4.00
2019-04-14T16:51:01.141Z,3.90
2019-04-14T16:53:32.555Z,3.97
2019-04-14T16:56:04.234Z,4.23
2019-04-14T16:58:38.314Z,4.37
2019-04-14T17:01:11.442Z,3.80
2019-04-14T17:03:44.451Z,3.93
2019-04-14T17:06:14.727Z,4.00
2019-04-14T17:08:44.649Z,3.87
2019-04-14T17:11:39.356Z,4.50
2019-04-14T17:14:13.407Z,4.70
2019-04-14T17:16:56.711Z,4.73
2019-04-14T17:19:30.865Z,4.17
2019-04-14T17:22:04.984Z,4.47
2019-04-14T17:24:54.725Z,4.07
2019-04-14T17:27:26.273Z,4.30
2019-04-14T17:30:09.811Z,4.77
2019-04-14T17:32:41.626Z,5.33
2019-04-14T17:35:19.698Z,4.47
2019-04-14T17:38:00.160Z,5.00
2019-04-14T17:40:34.866Z,4.50
2019-04-14T17:43:07.076Z,4.57
2019-04-14T17:45:41.480Z,4.53
2019-04-14T17:48:16.123Z,4.80
2019-04-14T17:50:50.497Z,4.57
2019-04-14T17:53:33.581Z,4.67
2019-04-14T17:56:23.485Z,4.47
2019-04-14T17:58:57.725Z,5.13
2019-04-14T18:01:44.008Z,4.43
2019-04-14T18:04:25.705Z,5.00
2019-04-14T18:07:01.141Z,5.27
2019-04-14T18:09:38.651Z,5.30
2019-04-14T18:12:10.265Z,5.07
2019-04-14T18:14:50.563Z,4.70
2019-04-14T18:17:31.350Z,4.60
2019-04-14T18:20:15.138Z,5.20
2019-04-14T18:22:44.908Z,5.57
2019-04-14T18:25:14.804Z,5.73
2019-04-14T18:27:51.986Z,4.83
2019-04-14T18:30:26.459Z,5.00
2019-04-14T18:33:03.880Z,4.73
2019-04-14T18:35:35.447Z,4.50
2019-04-14T18:38:12.640Z,5.37
2019-04-14T18:40:55.715Z,4.67
2019-04-14T18:43:29.838Z,5.03
2019-04-14T18:46:01.736Z,4.97
2019-04-14T18:48:41.892Z,4.97
2019-04-14T18:51:25.396Z,4.60
2019-04-14T18:53:56.902Z,5.63
2019-04-14T18:56:28.293Z,4.67
2019-04-14T18:59:02.720Z,5.40
2019-04-14T19:01:34.108Z,5.03
2019-04-14T19:04:03.804Z,6.53
2019-04-14T19:06:33.472Z,5.20
2019-04-14T19:09:03.603Z,4.77
2019-04-14T19:11:34.936Z,4.90
2019-04-14T19:14:06.248Z,5.07
2019-04-14T19:16:43.217Z,4.43
2019-04-14T19:19:12.895Z,4.70
2019-04-14T19:21:42.583Z,4.43
2019-04-14T19:24:12.258Z,4.70
2019-04-14T19:26:41.949Z,5.00
2019-04-14T19:29:11.684Z,5.10
2019-04-14T19:31:41.569Z,5.10
2019-04-14T19:34:11.261Z,5.23
2019-04-14T19:36:40.953Z,4.63
2019-04-14T19:39:10.782Z,5.43
2019-04-14T19:41:40.479Z,4.30
2019-04-14T19:44:10.167Z,4.80
2019-04-14T19:46:41.058Z,4.83
2019-04-14T19:49:10.836Z,4.73
2019-04-14T19:51:40.525Z,5.27
2019-04-14T19:54:10.282Z,5.47
2019-04-14T19:56:39.974Z,5.40
2019-04-14T19:59:09.665Z,5.70
2019-04-14T20:01:39.420Z,4.30
2019-04-14T20:04:09.238Z,4.43
2019-04-14T20:06:38.948Z,4.83
2019-04-14T20:09:08.741Z,5.13
2019-04-14T20:11:38.535Z,5.85
2019-04-14T20:14:08.467Z,5.77
2019-04-14T20:16:46.023Z,5.33
2019-04-14T20:19:17.397Z,5.37
2019-04-14T20:22:04.020Z,5.03
2019-04-14T20:24:47.272Z,5.17
2019-04-14T20:27:18.590Z,5.10
2019-04-14T20:29:49.950Z,5.30
2019-04-14T20:32:24.279Z,5.77
2019-04-14T20:34:53.951Z,5.47
2019-04-14T20:37:23.637Z,5.73
2019-04-14T20:39:53.370Z,5.43
2019-04-14T20:42:23.061Z,5.27
2019-04-14T20:44:52.733Z,5.13
2019-04-14T20:47:26.358Z,4.90
2019-04-14T20:49:56.018Z,5.73
2019-04-14T20:52:29.260Z,4.87
2019-04-14T20:55:00.538Z,5.00
2019-04-14T20:57:30.254Z,5.10
2019-04-14T20:59:59.920Z,4.63
2019-04-14T21:02:31.258Z,5.20
2019-04-14T21:05:18.568Z,4.23
2019-04-14T21:07:49.906Z,4.80
2019-04-14T21:10:24.106Z,5.00
2019-04-14T21:13:07.419Z,4.50
2019-04-14T21:15:41.991Z,4.87
2019-04-14T21:18:16.365Z,5.23
2019-04-14T21:20:53.616Z,4.63
2019-04-14T21:23:24.975Z,4.83
2019-04-14T21:26:05.108Z,4.50
2019-04-14T21:28:39.708Z,4.97
2019-04-14T21:31:11.119Z,5.00
2019-04-14T21:33:57.347Z,4.80
2019-04-14T21:36:31.653Z,4.57
2019-04-14T21:39:18.103Z,4.77
2019-04-14T21:41:49.474Z,4.50
2019-04-14T21:44:19.423Z,4.50
2019-04-14T21:46:57.559Z,4.50
2019-04-14T21:49:27.441Z,4.03
2019-04-14T21:52:04.905Z,4.43
2019-04-14T21:54:34.674Z,4.60
2019-04-14T21:57:08.247Z,4.67
2019-04-14T21:59:55.720Z,4.40
2019-04-14T22:02:43.367Z,5.03
2019-04-14T22:05:30.961Z,4.03
2019-04-14T22:08:11.178Z,4.70
2019-04-14T22:10:51.708Z,4.60
2019-04-14T22:13:21.408Z,4.60
2019-04-14T22:15:51.163Z,4.57
2019-04-14T22:18:20.900Z,4.93
2019-04-14T22:20:50.591Z,4.37
2019-04-14T22:23:20.363Z,4.50
2019-04-14T22:25:50.057Z,4.60
2019-04-14T22:28:19.830Z,4.77
2019-04-14T22:30:49.493Z,3.73
2019-04-14T22:33:19.262Z,4.70
2019-04-14T22:35:48.935Z,4.30
2019-04-14T22:38:18.777Z,4.00
2019-04-14T22:40:48.474Z,3.80
2019-04-14T22:43:18.207Z,4.77
2019-04-14T22:45:47.902Z,3.97
2019-04-14T22:48:17.783Z,4.43
2019-04-14T22:50:47.465Z,4.20
2019-04-14T22:53:17.269Z,3.80
2019-04-14T22:55:47.065Z,3.97
2019-04-14T22:58:16.833Z,3.90
2019-04-14T23:00:57.307Z,3.83
2019-04-14T23:03:45.011Z,3.67
2019-04-14T23:06:28.530Z,3.80
2019-04-14T23:09:16.234Z,4.33
2019-04-14T23:11:47.632Z,3.80
2019-04-14T23:14:27.949Z,4.30
2019-04-14T23:17:14.172Z,3.80
2019-04-14T23:19:45.522Z,3.57
2019-04-14T23:22:32.157Z,4.00
2019-04-14T23:25:02.091Z,3.90
2019-04-14T23:27:31.923Z,4.37
2019-04-14T23:30:01.758Z,4.20
2019-04-14T23:32:31.520Z,4.50
2019-04-14T23:35:01.440Z,4.30
2019-04-14T23:37:31.253Z,3.53
2019-04-14T23:40:00.991Z,3.93
2019-04-14T23:42:30.940Z,4.00
2019-04-14T23:47:57.098Z,3.77
2019-04-14T23:50:26.814Z,3.97
2019-04-14T23:52:56.486Z,4.00
2019-04-14T23:55:26.172Z,4.17
2019-04-14T23:57:55.865Z,3.90
